Time;durP1;ratioP1;P1;durP2;ratioP2;P2;SDS_P1;SDS_P2;PMS_P1;PMS_P2;Temp;Humidity;BMP_temperature;BMP_pressure;BME280_temperature;BME280_humidity;BME280_pressure;Samples;Min_cycle;Max_cycle;Signal;HPM_P1;HPM_P2
2023/05/15 00:03:05;;;;;;;0.55;0.55;;;;;;;;;;10073872;29;20057;-83
2023/05/15 00:08:09;;;;;;;0.75;0.75;;;;;;;;;;10086170;29;20053;-82
2023/05/15 00:13:12;;;;;;;1.10;1.00;;;;;;;;;;10077712;29;20051;-81
2023/05/15 00:18:17;;;;;;;1.10;1.00;;;;;;;;;;10076555;29;20049;-81
2023/05/15 00:23:20;;;;;;;1.20;0.82;;;;;;;;;;10077721;29;20060;-81
2023/05/15 00:28:23;;;;;;;5.13;0.88;;;;;;;;;;10077169;29;20625;-81
2023/05/15 00:33:28;;;;;;;0.90;0.80;;;;;;;;;;10076344;29;20052;-82
2023/05/15 00:38:32;;;;;;;2.00;0.80;;;;;;;;;;10075792;29;20053;-82
2023/05/15 00:43:36;;;;;;;1.77;0.70;;;;;;;;;;10093847;29;20048;-82
2023/05/15 00:48:42;;;;;;;3.92;1.13;;;;;;;;;;10076659;29;20176;-83
2023/05/15 00:53:45;;;;;;;1.73;0.82;;;;;;;;;;10076953;29;20048;-85
2023/05/15 00:58:50;;;;;;;0.60;0.60;;;;;;;;;;10092311;29;20053;-83
2023/05/15 01:03:55;;;;;;;1.23;0.90;;;;;;;;;;10092308;29;20052;-84
2023/05/15 01:09:02;;;;;;;3.38;0.80;;;;;;;;;;10074188;29;20523;-85
2023/05/15 01:14:07;;;;;;;0.80;0.80;;;;;;;;;;10072448;29;20126;-84
2023/05/15 01:19:12;;;;;;;1.02;0.75;;;;;;;;;;10071204;29;20053;-84
2023/05/15 01:24:31;;;;;;;0.60;0.60;;;;;;;;;;10072069;29;20045;-84
2023/05/15 01:29:41;;;;;;;2.25;0.70;;;;;;;;;;10072783;29;20049;-84
2023/05/15 01:34:48;;;;;;;0.90;0.88;;;;;;;;;;10078088;29;20041;-85
2023/05/15 01:39:58;;;;;;;0.95;0.90;;;;;;;;;;10079496;29;20085;-85
2023/05/15 01:45:05;;;;;;;1.38;0.80;;;;;;;;;;10082296;29;20056;-84
2023/05/15 01:50:13;;;;;;;0.93;0.80;;;;;;;;;;10084068;29;20049;-85
2023/05/15 01:55:16;;;;;;;1.90;0.80;;;;;;;;;;10087223;29;20453;-85
2023/05/15 02:00:22;;;;;;;2.05;0.70;;;;;;;;;;10131910;29;20132;-84
2023/05/15 02:05:26;;;;;;;0.90;0.65;;;;;;;;;;10132879;29;20078;-84
2023/05/15 02:10:30;;;;;;;3.25;0.82;;;;;;;;;;10114281;29;20053;-83
2023/05/15 02:15:35;;;;;;;2.40;1.00;;;;;;;;;;10111186;29;20107;-84
2023/05/15 02:20:38;;;;;;;1.38;0.80;;;;;;;;;;10102870;29;20048;-84
2023/05/15 02:25:49;;;;;;;0.98;0.85;;;;;;;;;;10103295;29;20375;-83
2023/05/15 02:31:01;;;;;;;1.30;0.88;;;;;;;;;;10112400;29;20053;-84
2023/05/15 02:36:08;;;;;;;0.90;0.85;;;;;;;;;;10111580;29;20056;-84
2023/05/15 02:41:13;;;;;;;2.00;1.00;;;;;;;;;;10100830;29;20040;-85
2023/05/15 02:46:19;;;;;;;1.02;0.95;;;;;;;;;;10116472;29;20059;-85
2023/05/15 02:51:22;;;;;;;1.13;1.00;;;;;;;;;;10115854;29;20100;-85
2023/05/15 02:56:26;;;;;;;0.85;0.85;;;;;;;;;;10117415;29;20055;-84
2023/05/15 03:01:30;;;;;;;1.10;0.90;;;;;;;;;;10135801;29;20068;-84
2023/05/15 03:06:34;;;;;;;2.30;0.95;;;;;;;;;;10115888;29;20072;-85
2023/05/15 03:11:37;;;;;;;1.50;0.98;;;;;;;;;;10115012;29;20072;-84
2023/05/15 03:16:41;;;;;;;1.05;0.90;;;;;;;;;;10116654;29;20052;-85
2023/05/15 03:21:45;;;;;;;2.15;1.00;;;;;;;;;;10133473;29;20487;-85
2023/05/15 03:26:48;;;;;;;1.38;1.08;;;;;;;;;;10116482;29;20147;-85
2023/05/15 03:31:53;;;;;;;3.30;1.20;;;;;;;;;;10107823;29;20447;-85
2023/05/15 03:36:56;;;;;;;1.50;1.10;;;;;;;;;;10133042;29;20056;-84
2023/05/15 03:41:59;;;;;;;1.48;1.25;;;;;;;;;;10113320;29;20076;-84
2023/05/15 03:47:04;;;;;;;2.10;1.25;;;;;;;;;;10113483;29;20048;-84
2023/05/15 03:52:07;;;;;;;1.27;1.05;;;;;;;;;;10099207;29;20052;-85
2023/05/15 03:57:11;;;;;;;2.10;1.42;;;;;;;;;;10109197;29;20060;-85
2023/05/15 04:02:15;;;;;;;3.38;1.42;;;;;;;;;;10106531;29;20058;-85
2023/05/15 04:07:18;;;;;;;2.10;1.17;;;;;;;;;;10094688;29;20057;-84
2023/05/15 04:12:22;;;;;;;1.52;1.10;;;;;;;;;;10070790;29;20053;-85
2023/05/15 04:17:26;;;;;;;2.42;1.20;;;;;;;;;;10064939;29;20057;-87
2023/05/15 04:22:30;;;;;;;1.70;1.17;;;;;;;;;;10060952;29;20041;-86
2023/05/15 04:27:33;;;;;;;1.17;1.00;;;;;;;;;;10060032;29;20501;-85
2023/05/15 04:32:38;;;;;;;1.27;1.10;;;;;;;;;;10060861;29;20045;-87
2023/05/15 04:37:44;;;;;;;1.03;0.93;;;;;;;;;;10063241;29;20132;-87
2023/05/15 04:42:47;;;;;;;1.10;1.00;;;;;;;;;;10062937;29;20049;-87
2023/05/15 04:47:52;;;;;;;0.98;0.98;;;;;;;;;;10082771;29;20101;-87
2023/05/15 04:52:55;;;;;;;1.20;1.10;;;;;;;;;;10079076;29;20625;-87
2023/05/15 04:57:58;;;;;;;1.30;1.20;;;;;;;;;;10096549;29;20049;-86
2023/05/15 05:03:03;;;;;;;1.27;1.17;;;;;;;;;;10078189;29;20053;-85
2023/05/15 11:08:26;;;;;;;21.77;15.85;;;;;;;;;;10101230;23;20041;-87
2023/05/15 11:14:14;;;;;;;24.87;18.53;;;;;;;;;;10071250;29;20068;-87
2023/05/15 11:19:24;;;;;;;13.75;12.25;;;;;;;;;;10071633;29;20049;-88
2023/05/15 11:24:30;;;;;;;22.02;15.82;;;;;;;;;;10072698;29;20056;-87
2023/05/15 11:29:34;;;;;;;25.95;18.98;;;;;;;;;;10071980;29;20144;-87
2023/05/15 11:34:42;;;;;;;13.30;10.75;;;;;;;;;;10088539;29;20139;-87
2023/05/15 11:39:48;;;;;;;16.67;13.65;;;;;;;;;;10071808;29;20045;-87
2023/05/15 11:44:52;;;;;;;19.00;15.40;;;;;;;;;;10088465;29;20053;-88
2023/05/15 11:49:55;;;;;;;17.40;13.95;;;;;;;;;;10085166;29;20562;-88
2023/05/15 11:55:00;;;;;;;21.33;12.43;;;;;;;;;;10087165;29;20049;-87
2023/05/15 12:00:05;;;;;;;10.35;7.75;;;;;;;;;;10087165;29;20053;-88
2023/05/15 12:05:10;;;;;;;17.97;14.47;;;;;;;;;;10088028;29;20510;-87
2023/05/15 12:10:15;;;;;;;12.07;10.23;;;;;;;;;;10087906;29;20045;-86
2023/05/15 12:15:18;;;;;;;15.53;13.30;;;;;;;;;;10087518;29;20061;-87
2023/05/15 12:20:21;;;;;;;12.13;8.75;;;;;;;;;;10088830;29;20076;-88
2023/05/15 12:25:26;;;;;;;9.55;8.07;;;;;;;;;;10091842;29;20060;-88
2023/05/15 12:30:31;;;;;;;14.17;10.93;;;;;;;;;;10071340;29;20063;-87
2023/05/15 12:35:35;;;;;;;10.53;7.43;;;;;;;;;;10087703;29;20049;-86
2023/05/15 12:40:40;;;;;;;11.45;6.90;;;;;;;;;;10064971;29;20290;-87
2023/05/15 12:45:44;;;;;;;7.17;5.90;;;;;;;;;;10053225;29;20064;-88
2023/05/15 12:50:48;;;;;;;4.80;4.25;;;;;;;;;;10088458;29;20060;-88
2023/05/15 12:55:53;;;;;;;4.60;4.03;;;;;;;;;;10087867;29;20140;-87
2023/05/15 13:00:57;;;;;;;5.47;4.13;;;;;;;;;;10071782;29;20053;-88
2023/05/15 13:06:03;;;;;;;5.75;3.97;;;;;;;;;;10086765;29;20342;-86
2023/05/15 13:11:12;;;;;;;4.50;3.58;;;;;;;;;;10099525;29;20060;-88
2023/05/15 13:16:20;;;;;;;3.85;3.10;;;;;;;;;;10077612;29;20113;-88
2023/05/15 13:21:24;;;;;;;3.13;2.83;;;;;;;;;;10076547;29;20053;-86
2023/05/15 13:26:29;;;;;;;3.42;2.53;;;;;;;;;;10092690;29;20064;-85
2023/05/15 13:31:33;;;;;;;5.72;5.10;;;;;;;;;;10092480;29;20056;-85
2023/05/15 13:36:36;;;;;;;7.47;5.45;;;;;;;;;;10076614;29;20053;-86
2023/05/15 13:41:53;;;;;;;5.88;4.50;;;;;;;;;;10092992;29;20045;-86
2023/05/15 13:46:57;;;;;;;6.07;4.60;;;;;;;;;;10093112;29;20065;-86
2023/05/15 13:52:00;;;;;;;11.45;4.50;;;;;;;;;;10069538;29;20141;-86
2023/05/15 13:57:05;;;;;;;6.00;3.88;;;;;;;;;;10083160;29;20063;-86
2023/05/15 14:02:08;;;;;;;4.03;3.33;;;;;;;;;;10074821;29;20053;-85
2023/05/15 14:07:12;;;;;;;3.03;2.28;;;;;;;;;;10074667;29;20057;-84
2023/05/15 14:12:17;;;;;;;5.13;4.20;;;;;;;;;;10091795;29;20422;-85
2023/05/15 14:17:20;;;;;;;4.38;3.13;;;;;;;;;;10092661;29;20408;-85
2023/05/15 14:22:24;;;;;;;3.85;3.28;;;;;;;;;;10093373;29;20040;-85
2023/05/15 14:27:28;;;;;;;4.30;3.00;;;;;;;;;;10100138;29;20535;-86
2023/05/15 14:32:32;;;;;;;5.43;2.67;;;;;;;;;;10091158;29;20056;-86
2023/05/15 14:37:36;;;;;;;3.78;2.83;;;;;;;;;;10092304;29;20127;-85
2023/05/15 14:42:40;;;;;;;2.45;2.25;;;;;;;;;;10075277;29;20057;-85
2023/05/15 14:47:44;;;;;;;4.77;3.93;;;;;;;;;;10092083;29;20128;-86
2023/05/15 14:52:47;;;;;;;5.85;3.70;;;;;;;;;;10092003;29;20594;-86
2023/05/15 14:57:52;;;;;;;3.17;2.50;;;;;;;;;;10074597;29;20434;-85
2023/05/15 15:02:55;;;;;;;2.20;1.90;;;;;;;;;;10091599;29;20101;-85
2023/05/15 15:08:00;;;;;;;3.15;2.28;;;;;;;;;;10070731;29;20072;-86
2023/05/15 15:13:08;;;;;;;3.17;2.00;;;;;;;;;;10093590;29;20052;-85
2023/05/15 15:18:12;;;;;;;2.38;1.77;;;;;;;;;;10079773;29;20049;-86
2023/05/15 15:23:15;;;;;;;2.20;1.77;;;;;;;;;;10087532;29;20048;-86
2023/05/15 15:28:20;;;;;;;4.28;2.53;;;;;;;;;;10070659;29;20056;-87
2023/05/15 15:33:23;;;;;;;2.65;1.70;;;;;;;;;;10072149;29;20053;-86
2023/05/15 15:38:27;;;;;;;4.47;3.20;;;;;;;;;;10071892;29;20056;-86
2023/05/15 15:43:31;;;;;;;3.67;2.28;;;;;;;;;;10071971;29;20060;-86
2023/05/15 15:48:35;;;;;;;5.75;3.22;;;;;;;;;;10071245;29;20059;-87
2023/05/15 15:53:38;;;;;;;7.57;4.25;;;;;;;;;;10088800;29;20597;-87
2023/05/15 15:58:43;;;;;;;5.32;2.85;;;;;;;;;;10071158;29;20136;-85
2023/05/15 16:03:46;;;;;;;3.40;2.95;;;;;;;;;;10084357;29;20324;-86
2023/05/15 16:08:50;;;;;;;4.30;3.17;;;;;;;;;;10071051;29;20064;-86
2023/05/15 16:13:55;;;;;;;2.95;1.92;;;;;;;;;;10087661;29;20059;-86
2023/05/15 16:18:58;;;;;;;2.92;2.08;;;;;;;;;;10079840;29;20570;-87
2023/05/15 16:24:02;;;;;;;7.38;3.88;;;;;;;;;;10070173;29;20053;-86
2023/05/15 16:29:06;;;;;;;3.55;2.20;;;;;;;;;;10071563;29;20053;-86
2023/05/15 16:34:10;;;;;;;2.72;1.75;;;;;;;;;;10071279;29;20049;-86
2023/05/15 16:39:13;;;;;;;2.15;1.80;;;;;;;;;;10070663;29;20053;-84
2023/05/15 16:44:18;;;;;;;2.30;1.65;;;;;;;;;;10075931;29;20439;-86
2023/05/15 16:49:21;;;;;;;2.58;1.67;;;;;;;;;;10097468;29;20053;-86
2023/05/15 16:54:24;;;;;;;3.78;2.30;;;;;;;;;;10077475;29;20503;-87
2023/05/15 16:59:29;;;;;;;3.80;1.88;;;;;;;;;;10078462;29;20049;-86
2023/05/15 17:04:33;;;;;;;2.53;1.80;;;;;;;;;;10097650;23;20052;-84
2023/05/15 17:09:39;;;;;;;3.35;2.88;;;;;;;;;;10120459;29;20603;-86
2023/05/15 17:14:43;;;;;;;2.90;2.47;;;;;;;;;;10128282;29;20053;-85
2023/05/15 17:19:46;;;;;;;2.85;1.88;;;;;;;;;;10137223;29;20140;-84
2023/05/15 17:24:51;;;;;;;3.88;1.83;;;;;;;;;;10116954;29;20044;-83
2023/05/15 17:29:56;;;;;;;1.80;1.48;;;;;;;;;;10112772;29;20143;-83
2023/05/15 17:34:59;;;;;;;3.35;2.20;;;;;;;;;;10114491;29;20100;-82
2023/05/15 17:40:03;;;;;;;4.40;2.72;;;;;;;;;;10113331;29;20051;-84
2023/05/15 17:45:09;;;;;;;2.67;2.00;;;;;;;;;;10128864;29;20056;-86
2023/05/15 17:50:12;;;;;;;5.22;3.78;;;;;;;;;;10103942;29;20108;-84
2023/05/15 17:55:16;;;;;;;5.88;4.57;;;;;;;;;;10105815;29;20044;-84
2023/05/15 18:00:21;;;;;;;5.10;4.13;;;;;;;;;;10113899;29;20049;-86
2023/05/15 18:05:26;;;;;;;5.33;3.90;;;;;;;;;;10103310;29;20048;-83
2023/05/15 18:10:29;;;;;;;5.18;4.47;;;;;;;;;;10109836;29;20099;-83
2023/05/15 18:15:34;;;;;;;7.60;4.88;;;;;;;;;;10108416;29;20147;-86
2023/05/15 18:20:38;;;;;;;4.57;3.00;;;;;;;;;;10109206;29;20060;-84
2023/05/15 18:25:41;;;;;;;7.43;5.10;;;;;;;;;;10111190;29;20095;-85
2023/05/15 18:30:46;;;;;;;8.98;6.90;;;;;;;;;;10125838;29;20044;-83
2023/05/15 18:35:50;;;;;;;6.57;4.93;;;;;;;;;;10106882;29;20063;-85
2023/05/15 18:40:55;;;;;;;7.80;6.13;;;;;;;;;;10102174;29;20071;-84
2023/05/15 18:46:00;;;;;;;8.52;6.72;;;;;;;;;;10102867;29;20056;-82
2023/05/15 18:51:03;;;;;;;5.75;4.95;;;;;;;;;;10102035;29;20049;-82
2023/05/15 18:56:06;;;;;;;9.32;6.80;;;;;;;;;;10114910;29;20041;-83
2023/05/15 19:01:11;;;;;;;7.13;5.88;;;;;;;;;;10100025;29;20064;-83
2023/05/15 19:06:18;;;;;;;8.07;6.00;;;;;;;;;;10111722;29;20055;-85
2023/05/15 19:11:30;;;;;;;;;;;;;;;;;;10100042;29;20589;-85
2023/05/15 19:16:38;;;;;;;5.68;4.20;;;;;;;;;;10101137;29;19927;-85
2023/05/15 19:21:42;;;;;;;8.32;5.05;;;;;;;;;;10095301;29;20053;-85
2023/05/15 19:26:45;;;;;;;6.97;5.43;;;;;;;;;;10104322;29;20516;-85
2023/05/15 19:31:50;;;;;;;5.80;4.43;;;;;;;;;;10116487;29;20761;-85
2023/05/15 19:36:54;;;;;;;4.70;3.58;;;;;;;;;;10101267;29;20052;-85
2023/05/15 19:41:57;;;;;;;7.15;5.50;;;;;;;;;;10100420;29;20048;-84
2023/05/15 19:47:02;;;;;;;6.32;4.40;;;;;;;;;;10110638;29;20052;-85
2023/05/15 19:52:06;;;;;;;5.65;4.22;;;;;;;;;;10099346;29;20059;-84
2023/05/15 19:57:09;;;;;;;4.82;3.65;;;;;;;;;;10118260;29;20077;-84
2023/05/15 20:02:14;;;;;;;4.97;4.15;;;;;;;;;;10101492;29;20040;-84
2023/05/15 20:07:18;;;;;;;5.53;4.80;;;;;;;;;;10100005;29;20551;-89
2023/05/15 20:12:21;;;;;;;7.25;4.28;;;;;;;;;;10109456;29;20058;-85
2023/05/15 20:17:30;;;;;;;5.78;4.18;;;;;;;;;;10129687;29;20580;-89
2023/05/15 20:22:35;;;;;;;4.55;4.07;;;;;;;;;;10125482;29;20065;-86
2023/05/15 20:27:38;;;;;;;5.82;4.68;;;;;;;;;;10131286;29;20104;-86
2023/05/15 20:32:43;;;;;;;8.18;5.50;;;;;;;;;;10128195;29;20528;-90
2023/05/15 20:37:47;;;;;;;8.55;6.07;;;;;;;;;;10130711;29;20052;-86
2023/05/15 20:42:51;;;;;;;7.35;6.00;;;;;;;;;;10112818;29;20120;-88
2023/05/15 20:47:56;;;;;;;10.77;7.03;;;;;;;;;;10130945;29;20120;-91
2023/05/15 20:52:59;;;;;;;9.50;6.70;;;;;;;;;;10111568;29;20084;-86
2023/05/15 20:58:03;;;;;;;8.90;6.95;;;;;;;;;;10120124;29;20053;-86
2023/05/15 21:03:08;;;;;;;8.70;6.88;;;;;;;;;;10116234;29;20079;-86
2023/05/15 21:08:11;;;;;;;10.75;7.32;;;;;;;;;;10109884;29;20057;-87
2023/05/15 21:13:14;;;;;;;11.25;8.93;;;;;;;;;;10110539;29;20040;-87
2023/05/15 21:18:19;;;;;;;10.85;6.68;;;;;;;;;;10109957;29;20050;-87
2023/05/15 21:23:24;;;;;;;12.25;8.82;;;;;;;;;;10126893;29;20048;-86
2023/05/15 21:28:27;;;;;;;11.90;8.02;;;;;;;;;;10111745;29;20056;-86
2023/05/15 21:33:32;;;;;;;10.95;7.78;;;;;;;;;;10113151;29;20052;-88
2023/05/15 21:38:36;;;;;;;10.10;7.45;;;;;;;;;;10114264;29;20048;-91
2023/05/15 21:43:39;;;;;;;11.75;7.95;;;;;;;;;;10131164;29;20045;-85
2023/05/15 21:48:44;;;;;;;10.73;7.72;;;;;;;;;;10134666;29;20049;-88
2023/05/15 21:53:48;;;;;;;12.13;7.67;;;;;;;;;;10116085;29;20044;-86
2023/05/15 21:58:52;;;;;;;11.20;7.82;;;;;;;;;;10114268;29;20053;-85
2023/05/15 22:03:57;;;;;;;11.20;7.60;;;;;;;;;;10113364;29;21637;-86
2023/05/15 22:09:01;;;;;;;9.30;7.07;;;;;;;;;;10113331;29;20076;-86
2023/05/15 22:14:05;;;;;;;10.88;7.28;;;;;;;;;;10111977;29;20131;-87
2023/05/15 22:19:10;;;;;;;9.90;6.60;;;;;;;;;;10112166;29;20475;-89
2023/05/15 22:24:18;;;;;;;9.02;6.57;;;;;;;;;;10111848;29;20072;-85
2023/05/15 22:29:21;;;;;;;10.38;7.05;;;;;;;;;;10127946;29;20158;-86
2023/05/15 22:34:27;;;;;;;10.35;7.43;;;;;;;;;;10112751;29;20291;-86
2023/05/15 22:39:31;;;;;;;10.85;8.07;;;;;;;;;;10115986;29;20059;-86
2023/05/15 22:44:35;;;;;;;12.57;7.60;;;;;;;;;;10109239;29;20052;-86
2023/05/15 22:49:39;;;;;;;12.02;7.97;;;;;;;;;;10110381;29;20052;-88
2023/05/15 22:54:43;;;;;;;8.77;6.22;;;;;;;;;;10111116;29;20144;-86
2023/05/15 22:59:48;;;;;;;7.93;5.10;;;;;;;;;;10111968;29;20092;-92
2023/05/15 23:04:53;;;;;;;6.43;4.40;;;;;;;;;;10126671;23;20053;-84
2023/05/15 23:09:57;;;;;;;5.75;4.45;;;;;;;;;;10134295;29;20053;-84
2023/05/15 23:15:00;;;;;;;7.97;5.00;;;;;;;;;;10118376;29;20131;-84
2023/05/15 23:20:09;;;;;;;12.68;6.85;;;;;;;;;;10131060;29;20082;-84
2023/05/15 23:25:12;;;;;;;5.65;4.32;;;;;;;;;;10127482;29;20044;-84
2023/05/15 23:30:16;;;;;;;5.03;3.80;;;;;;;;;;10113572;29;20094;-84
2023/05/15 23:35:21;;;;;;;9.05;6.20;;;;;;;;;;10114099;29;20440;-84
2023/05/15 23:40:25;;;;;;;6.78;4.70;;;;;;;;;;10113436;29;20056;-84
2023/05/15 23:45:28;;;;;;;9.75;4.78;;;;;;;;;;10126084;29;20740;-84
2023/05/15 23:50:33;;;;;;;8.65;6.32;;;;;;;;;;10132213;29;20063;-84
2023/05/15 23:55:36;;;;;;;7.22;4.07;;;;;;;;;;10115257;29;20532;-84
